Time;durP1;ratioP1;P1;durP2;ratioP2;P2;SDS_P1;SDS_P2;PMS_P1;PMS_P2;Temp;Humidity;BMP_temperature;BMP_pressure;BME280_temperature;BME280_humidity;BME280_pressure;Samples;Min_cycle;Max_cycle;Signal;HPM_P1;HPM_P2
2022/10/27 00:01:02;;;;;;;8.37;4.07;;;12.70;99.90;;;;;;8395641;28;20610;-72
2022/10/27 00:05:03;;;;;;;5.40;4.00;;;12.70;99.90;;;;;;8398195;28;20539;-71
2022/10/27 00:09:04;;;;;;;5.63;4.63;;;12.70;99.90;;;;;;8417843;28;20233;-70
2022/10/27 00:13:06;;;;;;;6.37;4.17;;;12.70;99.90;;;;;;8399124;28;20187;-71
2022/10/27 00:17:07;;;;;;;5.43;4.13;;;12.80;99.90;;;;;;8396963;28;20220;-73
2022/10/27 00:21:13;;;;;;;7.57;4.60;;;12.90;99.90;;;;;;8397210;28;20192;-71
2022/10/27 00:25:14;;;;;;;5.20;3.63;;;12.90;99.90;;;;;;8400089;28;20185;-71
2022/10/27 00:29:15;;;;;;;7.63;4.13;;;13.00;99.90;;;;;;8415749;28;20298;-70
2022/10/27 00:33:15;;;;;;;6.53;3.90;;;13.10;99.90;;;;;;8397843;28;20219;-71
2022/10/27 00:37:16;;;;;;;6.13;4.20;;;13.10;99.90;;;;;;8414631;28;20193;-75
2022/10/27 00:41:34;;;;;;;7.03;4.00;;;13.20;99.90;;;;;;8398357;28;20249;-71
2022/10/27 00:45:34;;;;;;;5.67;4.20;;;13.20;99.90;;;;;;8415199;28;20622;-71
2022/10/27 00:49:43;;;;;;;7.60;4.17;;;13.30;99.90;;;;;;8412537;28;20212;-70
2022/10/27 00:53:45;;;;;;;5.90;4.20;;;13.40;99.90;;;;;;8395101;28;20264;-71
2022/10/27 00:57:49;;;;;;;5.70;3.80;;;13.40;99.90;;;;;;8413797;28;20200;-71
2022/10/27 01:01:51;;;;;;;6.80;4.07;;;13.50;99.90;;;;;;8414220;28;20565;-71
2022/10/27 01:05:54;;;;;;;5.43;3.87;;;13.50;99.90;;;;;;8411569;28;20206;-71
2022/10/27 01:09:55;;;;;;;6.77;3.30;;;13.40;99.90;;;;;;8414331;28;20452;-71
2022/10/27 01:13:56;;;;;;;5.63;3.43;;;13.30;99.90;;;;;;8397967;28;20263;-71
2022/10/27 01:18:04;;;;;;;6.67;3.87;;;13.20;99.90;;;;;;8397516;28;20184;-71
2022/10/27 01:22:31;;;;;;;3.70;3.30;;;13.30;99.90;;;;;;8411793;28;20295;-71
2022/10/27 01:26:51;;;;;;;8.00;3.77;;;13.20;99.90;;;;;;8379959;28;20243;-71
2022/10/27 01:31:02;;;;;;;7.30;3.97;;;13.00;99.90;;;;;;8414061;28;20187;-71
2022/10/27 01:35:33;;;;;;;4.37;3.57;;;12.90;99.90;;;;;;8396712;28;20188;-70
2022/10/27 01:39:59;;;;;;;5.87;4.13;;;12.70;99.90;;;;;;8387172;28;20189;-72
2022/10/27 01:44:06;;;;;;;4.90;3.50;;;12.50;99.90;;;;;;8387017;28;20199;-70
2022/10/27 01:48:09;;;;;;;5.07;3.57;;;12.30;99.90;;;;;;8412871;28;20208;-70
2022/10/27 01:52:41;;;;;;;5.10;4.00;;;12.20;99.90;;;;;;8396613;28;20180;-71
2022/10/27 01:57:05;;;;;;;6.07;3.70;;;12.10;99.90;;;;;;8400884;28;20177;-71
2022/10/27 02:01:12;;;;;;;4.13;3.13;;;11.90;99.90;;;;;;8395360;28;20192;-71
2022/10/27 02:05:13;;;;;;;5.37;3.83;;;11.80;99.90;;;;;;8414892;28;20199;-70
2022/10/27 02:09:25;;;;;;;6.50;4.43;;;11.70;99.90;;;;;;8413914;28;20205;-71
2022/10/27 02:13:29;;;;;;;6.00;4.20;;;11.70;99.90;;;;;;8415844;28;20185;-70
2022/10/27 02:17:39;;;;;;;6.23;3.90;;;11.60;99.90;;;;;;8416790;28;20168;-71
2022/10/27 02:21:43;;;;;;;6.83;4.30;;;11.60;99.90;;;;;;8413562;28;20307;-71
2022/10/27 02:25:48;;;;;;;6.40;4.10;;;11.50;99.90;;;;;;8412801;28;20421;-70
2022/10/27 02:29:52;;;;;;;9.20;4.80;;;11.50;99.90;;;;;;8414738;28;20327;-71
2022/10/27 02:33:54;;;;;;;6.00;4.23;;;11.50;99.90;;;;;;8395677;28;20215;-70
2022/10/27 02:37:58;;;;;;;7.63;5.43;;;11.40;99.90;;;;;;8412988;28;20176;-71
2022/10/27 02:41:58;;;;;;;6.97;4.87;;;11.50;99.90;;;;;;8412115;28;20441;-70
2022/10/27 02:45:59;;;;;;;8.07;5.03;;;11.50;99.90;;;;;;8395484;28;20211;-70
2022/10/27 02:50:00;;;;;;;8.67;5.20;;;11.50;99.90;;;;;;8394127;28;20238;-73
2022/10/27 02:54:01;;;;;;;9.17;5.63;;;11.50;99.90;;;;;;8397052;28;20233;-71
2022/10/27 02:58:02;;;;;;;9.70;5.27;;;11.60;99.90;;;;;;8395003;28;20215;-70
2022/10/27 03:02:02;;;;;;;9.23;5.23;;;11.60;99.90;;;;;;8413757;28;20192;-71
2022/10/27 03:06:03;;;;;;;7.87;5.23;;;11.60;99.90;;;;;;8414483;28;20180;-70
2022/10/27 03:10:05;;;;;;;9.03;5.53;;;11.60;99.90;;;;;;8396389;28;20294;-72
2022/10/27 03:14:05;;;;;;;9.23;5.53;;;11.50;99.90;;;;;;8398206;28;20180;-71
2022/10/27 03:18:06;;;;;;;7.70;5.40;;;11.50;99.90;;;;;;8413043;28;20504;-71
2022/10/27 03:22:07;;;;;;;5.93;5.33;;;11.50;99.90;;;;;;8396614;28;20184;-71
2022/10/27 03:26:08;;;;;;;7.27;5.43;;;11.50;99.90;;;;;;8390867;28;20194;-71
2022/10/27 03:30:12;;;;;;;10.57;5.50;;;11.40;99.90;;;;;;8396314;28;20208;-71
2022/10/27 03:34:12;;;;;;;11.70;6.60;;;11.40;99.90;;;;;;8419668;28;20212;-71
2022/10/27 03:38:13;;;;;;;10.43;5.43;;;11.40;99.90;;;;;;8398013;28;20184;-71
2022/10/27 03:42:14;;;;;;;7.50;5.60;;;11.40;99.90;;;;;;8401634;28;20184;-71
2022/10/27 03:46:15;;;;;;;11.80;6.30;;;11.40;99.90;;;;;;8419100;28;20206;-71
2022/10/27 03:50:15;;;;;;;11.27;5.87;;;11.30;99.90;;;;;;8399850;28;20212;-71
2022/10/27 03:54:16;;;;;;;8.80;5.73;;;11.30;99.90;;;;;;8400711;28;20310;-70
2022/10/27 03:58:17;;;;;;;8.00;5.90;;;11.30;99.90;;;;;;8418694;28;20200;-71
2022/10/27 04:02:18;;;;;;;8.13;6.33;;;11.20;99.90;;;;;;8418579;28;20196;-71
2022/10/27 04:06:19;;;;;;;7.47;6.03;;;11.10;99.90;;;;;;8416459;28;20184;-70
2022/10/27 04:10:20;;;;;;;9.93;6.47;;;11.10;99.90;;;;;;8402919;28;20288;-73
2022/10/27 04:14:20;;;;;;;9.93;6.63;;;11.00;99.90;;;;;;8400286;28;20620;-71
2022/10/27 04:18:21;;;;;;;10.90;7.77;;;11.00;99.90;;;;;;8397282;28;20188;-70
2022/10/27 04:22:22;;;;;;;9.90;7.17;;;11.00;99.90;;;;;;8398422;28;20180;-71
2022/10/27 04:26:23;;;;;;;12.30;6.30;;;10.90;99.90;;;;;;8398883;28;20189;-71
2022/10/27 04:30:24;;;;;;;10.93;7.00;;;10.80;99.90;;;;;;8414379;28;20208;-72
2022/10/27 04:34:24;;;;;;;12.70;7.70;;;10.80;99.90;;;;;;8415853;28;20192;-71
2022/10/27 04:38:25;;;;;;;11.60;6.90;;;10.70;99.90;;;;;;8414211;28;20512;-71
2022/10/27 04:42:26;;;;;;;11.70;6.97;;;10.70;99.90;;;;;;8390828;28;20192;-70
2022/10/27 04:46:26;;;;;;;8.67;6.53;;;10.70;99.90;;;;;;8414033;28;20230;-71
2022/10/27 04:50:27;;;;;;;16.53;9.10;;;10.70;99.90;;;;;;8414683;28;20274;-71
2022/10/27 04:54:28;;;;;;;15.33;9.00;;;10.70;99.90;;;;;;8393690;28;20239;-71
2022/10/27 04:58:29;;;;;;;13.27;8.60;;;10.80;99.90;;;;;;8412505;28;20237;-71
2022/10/27 05:02:29;;;;;;;15.07;9.07;;;10.70;99.90;;;;;;8400115;28;20214;-70
2022/10/27 05:06:30;;;;;;;14.10;9.80;;;10.70;99.90;;;;;;8399332;28;20199;-70
2022/10/27 05:10:33;;;;;;;11.43;8.80;;;10.80;99.90;;;;;;8398602;28;20187;-70
2022/10/27 05:14:34;;;;;;;18.47;10.17;;;10.70;99.90;;;;;;8414483;28;20259;-72
2022/10/27 05:18:34;;;;;;;13.37;9.87;;;10.80;99.90;;;;;;8398035;28;20214;-71
2022/10/27 05:22:37;;;;;;;15.10;10.03;;;10.80;99.90;;;;;;8395654;28;20231;-71
2022/10/27 05:26:37;;;;;;;13.47;8.80;;;10.70;99.90;;;;;;8394399;28;20192;-71
2022/10/27 05:30:38;;;;;;;16.30;9.00;;;10.70;99.90;;;;;;8414112;28;20188;-71
2022/10/27 05:34:39;;;;;;;13.23;8.50;;;10.70;99.90;;;;;;8395012;28;20180;-70
2022/10/27 05:38:41;;;;;;;17.60;8.80;;;10.60;99.90;;;;;;8398480;28;20198;-71
2022/10/27 05:42:50;;;;;;;16.27;9.00;;;10.70;99.90;;;;;;8399058;28;20248;-71
2022/10/27 05:46:50;;;;;;;14.23;8.87;;;10.70;99.90;;;;;;8415624;28;20199;-70
2022/10/27 05:50:54;;;;;;;14.43;9.73;;;10.60;99.90;;;;;;8416819;28;20243;-71
2022/10/27 05:54:55;;;;;;;16.90;10.20;;;10.70;99.90;;;;;;8420256;28;20179;-70
2022/10/27 05:58:56;;;;;;;20.07;10.90;;;10.80;99.90;;;;;;8397012;28;20263;-71
2022/10/27 06:02:58;;;;;;;15.10;10.63;;;10.80;99.90;;;;;;8392796;28;20295;-71
2022/10/27 06:06:59;;;;;;;12.20;9.93;;;10.80;99.90;;;;;;8410964;28;20282;-71
2022/10/27 06:11:01;;;;;;;15.53;11.20;;;10.90;99.90;;;;;;8413398;28;20183;-71
2022/10/27 06:15:02;;;;;;;15.63;10.63;;;10.90;99.90;;;;;;8410281;28;20199;-71
2022/10/27 06:19:03;;;;;;;14.07;9.90;;;10.90;99.90;;;;;;8413544;28;20195;-71
2022/10/27 06:23:03;;;;;;;13.20;8.93;;;10.90;99.90;;;;;;8396510;28;20180;-71
2022/10/27 06:27:04;;;;;;;15.87;11.40;;;10.90;99.90;;;;;;8415330;28;20212;-71
2022/10/27 06:31:05;;;;;;;21.30;15.00;;;11.00;99.90;;;;;;8395120;28;20180;-71
2022/10/27 06:35:08;;;;;;;24.23;15.13;;;11.10;99.90;;;;;;8398045;28;20181;-71
2022/10/27 06:39:08;;;;;;;26.83;15.93;;;11.10;99.90;;;;;;8393923;28;20184;-71
2022/10/27 06:43:10;;;;;;;20.67;14.80;;;11.20;99.90;;;;;;8413910;28;20187;-70
2022/10/27 06:47:11;;;;;;;19.97;13.60;;;11.30;99.90;;;;;;8394701;28;20311;-71
2022/10/27 06:51:12;;;;;;;19.73;12.53;;;11.40;99.90;;;;;;8395663;28;20191;-72
2022/10/27 06:55:13;;;;;;;19.67;13.00;;;11.50;99.90;;;;;;8394362;28;20181;-71
2022/10/27 06:59:13;;;;;;;17.97;11.33;;;11.60;99.90;;;;;;8396428;28;20295;-71
2022/10/27 07:03:15;;;;;;;16.70;11.47;;;11.80;99.90;;;;;;8393854;28;20192;-71
2022/10/27 07:07:16;;;;;;;18.03;11.73;;;11.90;99.90;;;;;;8399472;28;20204;-72
2022/10/27 07:11:16;;;;;;;18.20;11.23;;;12.00;99.90;;;;;;8400910;28;20187;-71
2022/10/27 07:15:17;;;;;;;14.37;10.90;;;12.20;99.90;;;;;;8398138;28;20208;-71
2022/10/27 07:19:18;;;;;;;15.37;10.93;;;12.30;99.90;;;;;;8417980;28;20183;-70
2022/10/27 07:23:19;;;;;;;20.37;11.17;;;12.50;99.90;;;;;;8398657;28;20172;-71
2022/10/27 07:27:20;;;;;;;19.83;11.87;;;12.60;99.90;;;;;;8418635;28;20208;-71
2022/10/27 07:31:21;;;;;;;14.63;10.67;;;12.80;99.90;;;;;;8400654;28;20397;-70
2022/10/27 07:35:22;;;;;;;13.83;9.30;;;13.00;99.90;;;;;;8416741;28;20185;-71
2022/10/27 07:39:23;;;;;;;13.53;9.20;;;13.30;99.90;;;;;;8398320;28;20181;-69
2022/10/27 07:43:24;;;;;;;13.87;8.67;;;13.60;99.90;;;;;;8398346;28;20215;-70
2022/10/27 07:47:25;;;;;;;14.13;9.10;;;13.80;99.90;;;;;;8398373;28;20204;-72
2022/10/27 07:51:25;;;;;;;13.27;7.63;;;13.80;99.90;;;;;;8417207;28;20183;-71
2022/10/27 07:55:28;;;;;;;13.93;7.63;;;13.90;99.90;;;;;;8418627;28;20180;-70
2022/10/27 07:59:29;;;;;;;12.43;7.23;;;14.00;99.90;;;;;;8399201;28;20212;-71
2022/10/27 08:03:30;;;;;;;11.33;6.77;;;14.20;99.90;;;;;;8400598;28;20288;-70
2022/10/27 08:07:31;;;;;;;11.07;6.70;;;14.30;99.90;;;;;;8400860;28;20214;-71
2022/10/27 08:11:32;;;;;;;10.00;5.17;;;14.30;99.90;;;;;;8400105;28;20188;-73
2022/10/27 08:15:39;;;;;;;8.93;5.60;;;14.40;99.90;;;;;;8418832;28;20196;-71
2022/10/27 08:19:40;;;;;;;7.73;5.77;;;14.50;99.90;;;;;;8398164;28;20212;-71
2022/10/27 08:23:41;;;;;;;9.60;5.47;;;14.60;99.90;;;;;;8417301;28;20183;-73
2022/10/27 08:27:41;;;;;;;9.23;5.17;;;14.70;99.90;;;;;;8396871;28;20232;-71
2022/10/27 08:31:42;;;;;;;9.87;4.93;;;14.80;99.90;;;;;;8398699;28;20183;-71
2022/10/27 08:35:43;;;;;;;9.10;4.60;;;15.00;99.90;;;;;;8400244;28;20181;-70
2022/10/27 08:39:44;;;;;;;8.33;4.40;;;15.20;99.90;;;;;;8418740;28;20211;-71
2022/10/27 08:44:06;;;;;;;9.07;4.40;;;15.30;99.90;;;;;;8419133;28;20256;-71
2022/10/27 08:48:11;;;;;;;8.83;4.97;;;15.50;99.90;;;;;;8398333;28;20204;-72
2022/10/27 08:52:41;;;;;;;8.00;4.80;;;15.60;99.90;;;;;;8415701;28;20189;-73
2022/10/27 08:56:43;;;;;;;10.03;4.30;;;15.80;99.90;;;;;;8415552;28;20192;-71
2022/10/27 09:00:52;;;;;;;13.80;4.73;;;16.00;99.90;;;;;;8417151;28;20183;-72
2022/10/27 09:05:12;;;;;;;7.43;3.57;;;16.10;99.90;;;;;;8402175;28;20193;-72
2022/10/27 09:09:18;;;;;;;8.20;4.67;;;16.40;99.90;;;;;;8417643;28;20201;-71
2022/10/27 09:13:24;;;;;;;8.53;4.23;;;16.70;99.90;;;;;;8418946;28;20169;-73
2022/10/27 09:17:30;;;;;;;7.10;4.60;;;16.70;99.90;;;;;;8403716;28;20193;-71
2022/10/27 09:21:33;;;;;;;9.67;4.40;;;16.90;99.90;;;;;;8416558;28;20211;-72
2022/10/27 09:25:36;;;;;;;8.27;4.90;;;17.20;99.90;;;;;;8402788;28;20219;-71
2022/10/27 09:29:37;;;;;;;8.87;5.50;;;17.30;99.90;;;;;;8413592;28;20217;-73
2022/10/27 09:33:42;;;;;;;9.60;4.63;;;17.30;99.90;;;;;;8398885;28;20204;-73
2022/10/27 09:37:44;;;;;;;9.00;5.23;;;17.40;99.90;;;;;;8418660;28;20188;-72
2022/10/27 09:41:45;;;;;;;13.60;5.90;;;17.50;99.90;;;;;;8399794;28;20230;-72
2022/10/27 09:45:54;;;;;;;8.90;4.93;;;17.50;99.90;;;;;;8401557;28;20185;-73
2022/10/27 09:49:56;;;;;;;7.70;4.40;;;17.40;99.90;;;;;;8415759;28;20250;-71
2022/10/27 09:53:59;;;;;;;10.63;5.40;;;17.60;1.00;;;;;;8418395;28;20172;-72
2022/10/27 09:58:01;;;;;;;9.53;4.83;;;17.80;99.90;;;;;;8399668;28;20204;-73
2022/10/27 10:02:23;;;;;;;8.57;4.77;;;18.00;99.90;;;;;;8400197;28;20287;-72
2022/10/27 10:06:36;;;;;;;11.13;5.33;;;18.20;1.00;;;;;;8417740;28;20200;-73
2022/10/27 10:10:38;;;;;;;7.73;4.47;;;18.30;1.00;;;;;;8397812;28;20188;-71
2022/10/27 10:14:39;;;;;;;10.97;5.47;;;18.30;1.00;;;;;;8399399;28;20173;-71
2022/10/27 10:18:56;;;;;;;9.07;4.37;;;18.30;1.00;;;;;;8395942;28;20180;-72
2022/10/27 10:22:58;;;;;;;6.33;3.80;;;18.40;1.00;;;;;;8397532;28;20187;-71
2022/10/27 10:27:02;;;;;;;11.53;5.17;;;18.70;1.00;;;;;;8414536;28;20196;-71
2022/10/27 10:31:09;;;;;;;7.77;4.37;;;18.90;1.00;;;;;;8391822;28;20211;-72
2022/10/27 10:35:42;;;;;;;7.20;4.73;;;19.10;99.90;;;;;;8398042;28;20184;-72
2022/10/27 10:39:43;;;;;;;5.83;4.03;;;19.40;99.90;;;;;;8379141;28;20189;-73
2022/10/27 10:43:44;;;;;;;8.53;4.97;;;19.80;99.90;;;;;;8396735;28;20506;-72
2022/10/27 10:47:55;;;;;;;5.53;4.07;;;20.20;99.90;;;;;;8413673;28;20307;-71
2022/10/27 10:51:59;;;;;;;6.20;4.20;;;20.60;67.10;;;;;;8414097;28;20229;-71
2022/10/27 10:56:18;;;;;;;8.90;4.67;;;20.90;1.00;;;;;;8410398;28;20339;-71
2022/10/27 11:00:20;;;;;;;6.97;4.27;;;21.10;1.00;;;;;;8413194;28;20203;-70
2022/10/27 11:04:27;;;;;;;6.10;3.67;;;21.10;1.00;;;;;;8397379;28;20193;-72
2022/10/27 11:08:41;;;;;;;5.00;3.90;;;21.20;1.00;;;;;;8389599;28;20208;-71
2022/10/27 11:13:18;;;;;;;7.87;3.93;;;21.30;1.00;;;;;;8412764;28;20526;-71
2022/10/27 11:17:21;;;;;;;5.80;3.00;;;21.40;1.00;;;;;;8381718;28;20432;-70
2022/10/27 11:21:51;;;;;;;5.80;3.23;;;21.60;1.00;;;;;;8397431;28;20181;-71
2022/10/27 11:25:52;;;;;;;6.53;3.20;;;21.80;99.90;;;;;;8383209;28;20192;-72
2022/10/27 11:30:08;;;;;;;7.57;2.73;;;21.90;99.90;;;;;;8393934;28;20200;-69
2022/10/27 11:34:37;;;;;;;5.63;2.67;;;22.00;99.90;;;;;;8413104;28;20181;-71
2022/10/27 11:39:08;;;;;;;8.53;2.70;;;22.00;99.90;;;;;;8413202;28;20227;-71
2022/10/27 11:43:41;;;;;;;5.03;2.70;;;21.10;99.90;;;;;;8409917;28;20180;-71
2022/10/27 11:47:45;;;;;;;7.43;2.77;;;20.00;1.00;;;;;;8396756;28;20281;-70
2022/10/27 11:51:54;;;;;;;6.10;2.93;;;19.60;1.00;;;;;;8397364;28;20238;-69
2022/10/27 11:56:14;;;;;;;5.60;2.20;;;19.40;1.00;;;;;;8395725;28;20230;-71
2022/10/27 12:00:26;;;;;;;2.80;1.80;;;19.30;1.00;;;;;;8399727;28;20255;-70
2022/10/27 12:04:45;;;;;;;6.80;2.23;;;19.60;1.00;;;;;;8397038;28;20287;-71
2022/10/27 12:09:14;;;;;;;3.00;1.87;;;19.60;1.00;;;;;;8420476;28;20208;-70
2022/10/27 12:13:41;;;;;;;5.87;2.43;;;19.80;1.00;;;;;;8410718;28;20231;-71
2022/10/27 12:18:21;;;;;;;7.57;1.70;;;20.00;1.00;;;;;;8393750;28;20267;-72
2022/10/27 12:22:36;;;;;;;4.17;2.00;;;20.20;1.00;;;;;;8348830;28;20192;-71
2022/10/27 12:26:43;;;;;;;3.27;1.60;;;20.30;99.90;;;;;;8422646;28;20188;-71
2022/10/27 12:30:46;;;;;;;7.43;2.10;;;20.30;99.90;;;;;;8421161;28;20195;-72
2022/10/27 12:35:05;;;;;;;3.43;1.90;;;20.40;99.90;;;;;;8404069;28;20187;-72
2022/10/27 12:39:33;;;;;;;2.53;1.70;;;20.50;99.90;;;;;;8401835;28;20187;-71
2022/10/27 12:43:43;;;;;;;3.37;1.60;;;20.60;99.90;;;;;;8394735;28;20184;-72
2022/10/27 12:48:25;;;;;;;2.93;1.80;;;20.50;99.90;;;;;;8418505;28;20212;-71
2022/10/27 12:52:27;;;;;;;5.80;1.97;;;20.50;99.90;;;;;;8378238;28;20193;-71
2022/10/27 12:56:56;;;;;;;6.17;2.13;;;20.40;99.90;;;;;;8400856;28;20204;-72
2022/10/27 13:01:23;;;;;;;2.10;1.40;;;20.10;99.90;;;;;;8406444;28;20204;-71
2022/10/27 13:06:03;;;;;;;4.80;1.80;;;20.00;1.00;;;;;;8393325;28;20188;-71
2022/10/27 13:10:16;;;;;;;4.40;1.97;;;20.10;1.00;;;;;;8404848;28;20266;-70
2022/10/27 13:14:22;;;;;;;2.67;2.00;;;19.90;1.00;;;;;;8418403;28;20183;-70
2022/10/27 13:18:48;;;;;;;3.67;1.67;;;19.80;1.00;;;;;;8417064;28;20181;-71
2022/10/27 13:22:52;;;;;;;2.50;1.63;;;19.80;1.00;;;;;;8420136;28;20177;-70
2022/10/27 13:27:11;;;;;;;5.33;2.20;;;19.90;1.00;;;;;;8407009;28;20203;-71
2022/10/27 13:31:20;;;;;;;2.93;1.80;;;19.80;1.00;;;;;;8403396;28;20172;-70
2022/10/27 13:35:35;;;;;;;2.97;1.80;;;19.70;1.00;;;;;;8404300;28;20253;-70
2022/10/27 13:39:44;;;;;;;2.57;1.43;;;19.60;1.00;;;;;;8405645;28;20181;-71
2022/10/27 13:43:45;;;;;;;3.33;1.80;;;19.50;1.00;;;;;;8421316;28;20188;-69
2022/10/27 13:48:06;;;;;;;7.37;2.10;;;19.40;1.00;;;;;;8402649;28;20299;-70
2022/10/27 13:52:15;;;;;;;4.00;2.10;;;19.30;1.00;;;;;;8399876;28;20208;-70
2022/10/27 13:56:16;;;;;;;3.43;1.90;;;19.20;1.00;;;;;;8403395;28;20177;-71
2022/10/27 14:00:23;;;;;;;5.10;2.50;;;19.20;1.00;;;;;;8400046;28;20205;-71
2022/10/27 14:04:49;;;;;;;2.17;1.80;;;19.30;1.00;;;;;;8415687;28;20366;-71
2022/10/27 14:08:52;;;;;;;2.93;1.50;;;19.30;1.20;;;;;;8413553;28;20204;-71
2022/10/27 14:12:53;;;;;;;3.50;1.60;;;19.30;47.10;;;;;;8396304;28;20177;-71
2022/10/27 14:16:56;;;;;;;2.80;1.40;;;19.30;80.70;;;;;;8397599;28;20215;-71
2022/10/27 14:21:20;;;;;;;2.83;1.57;;;19.30;93.10;;;;;;8414421;28;20168;-71
2022/10/27 14:25:21;;;;;;;3.57;1.90;;;19.20;99.60;;;;;;8392464;28;20195;-71
2022/10/27 14:29:23;;;;;;;2.23;1.60;;;19.10;99.90;;;;;;8398314;28;20295;-71
2022/10/27 14:33:25;;;;;;;4.23;2.70;;;19.00;47.40;;;;;;8414987;28;20177;-70
2022/10/27 14:37:34;;;;;;;2.93;2.63;;;18.90;99.90;;;;;;8398240;28;20414;-71
2022/10/27 14:41:37;;;;;;;4.47;2.27;;;18.80;1.00;;;;;;8397501;28;20268;-71
2022/10/27 14:45:41;;;;;;;3.47;2.30;;;18.60;30.20;;;;;;8417550;28;20252;-71
2022/10/27 14:50:17;;;;;;;3.17;1.53;;;18.50;99.90;;;;;;8414600;28;20334;-71
2022/10/27 14:54:19;;;;;;;2.57;1.70;;;18.30;99.90;;;;;;8415614;28;20184;-71
2022/10/27 14:58:21;;;;;;;2.77;1.97;;;18.10;99.90;;;;;;8395431;28;20227;-71
2022/10/27 15:02:23;;;;;;;2.20;1.63;;;17.90;6.90;;;;;;8396145;28;20196;-70
2022/10/27 15:06:41;;;;;;;1.83;1.50;;;17.60;28.60;;;;;;8415340;28;20185;-71
2022/10/27 15:10:45;;;;;;;2.13;1.30;;;17.40;99.90;;;;;;8396938;28;20520;-72
2022/10/27 15:14:47;;;;;;;3.07;1.60;;;17.10;99.90;;;;;;8412422;28;20287;-71
2022/10/27 15:18:48;;;;;;;2.33;1.70;;;16.90;1.00;;;;;;8415457;28;20173;-70
2022/10/27 15:22:52;;;;;;;2.27;1.33;;;16.60;30.80;;;;;;8397257;28;20975;-70
2022/10/27 15:26:53;;;;;;;2.20;1.70;;;16.30;99.90;;;;;;8419949;28;20187;-70
2022/10/27 15:30:54;;;;;;;2.70;1.50;;;16.00;99.90;;;;;;8403197;28;20176;-70
2022/10/27 15:34:55;;;;;;;2.93;1.60;;;15.70;1.00;;;;;;8405034;28;20187;-70
2022/10/27 15:38:55;;;;;;;2.10;1.70;;;15.40;91.10;;;;;;8404579;28;20183;-70
2022/10/27 15:42:57;;;;;;;2.47;2.17;;;15.10;1.00;;;;;;8404359;28;20309;-69
2022/10/27 15:46:58;;;;;;;3.67;2.73;;;14.80;99.90;;;;;;8405709;28;20180;-70
2022/10/27 15:51:09;;;;;;;4.27;3.13;;;14.50;99.90;;;;;;8403956;28;20263;-69
2022/10/27 15:55:21;;;;;;;6.17;3.00;;;14.20;1.00;;;;;;8402200;28;20177;-69
2022/10/27 15:59:26;;;;;;;3.53;2.60;;;14.00;1.00;;;;;;8417491;28;20200;-70
2022/10/27 16:03:33;;;;;;;3.83;3.00;;;13.80;99.90;;;;;;8418926;28;20196;-69
2022/10/27 16:07:33;;;;;;;7.10;5.67;;;13.70;1.00;;;;;;8419404;28;20204;-69
2022/10/27 16:11:40;;;;;;;7.03;5.23;;;13.50;94.10;;;;;;8421268;28;20255;-69
2022/10/27 16:15:43;;;;;;;5.37;3.80;;;13.30;99.90;;;;;;8418298;28;20180;-69
2022/10/27 16:19:44;;;;;;;7.33;4.60;;;13.10;99.90;;;;;;8419340;28;20176;-69
2022/10/27 16:23:45;;;;;;;6.17;4.10;;;12.90;99.90;;;;;;8416965;28;20247;-70
2022/10/27 16:27:46;;;;;;;6.80;4.10;;;12.80;99.90;;;;;;8417551;28;20285;-70
2022/10/27 16:31:48;;;;;;;6.70;3.20;;;12.70;1.00;;;;;;8416185;28;20264;-70
2022/10/27 16:35:49;;;;;;;3.50;3.00;;;12.50;99.90;;;;;;8412803;28;20174;-70
2022/10/27 16:39:50;;;;;;;3.90;3.10;;;12.40;99.90;;;;;;8397290;28;20211;-69
2022/10/27 16:43:51;;;;;;;5.47;3.37;;;12.30;99.90;;;;;;8417871;28;20183;-70
2022/10/27 16:47:52;;;;;;;7.27;5.00;;;12.20;43.40;;;;;;8398391;28;20208;-70
2022/10/27 16:51:52;;;;;;;10.97;7.00;;;12.10;99.90;;;;;;8399085;28;20183;-70
2022/10/27 16:55:58;;;;;;;9.90;7.00;;;12.00;99.90;;;;;;8400150;28;20190;-70
2022/10/27 16:59:59;;;;;;;8.87;7.97;;;11.90;99.90;;;;;;8397684;28;20200;-70
2022/10/27 17:04:00;;;;;;;25.27;15.33;;;11.90;99.90;;;;;;8415532;28;20200;-69
2022/10/27 17:08:01;;;;;;;24.30;18.97;;;11.80;99.90;;;;;;8398472;28;20257;-70
2022/10/27 17:12:02;;;;;;;25.03;20.10;;;11.80;99.90;;;;;;8398592;28;20173;-70
2022/10/27 17:16:08;;;;;;;30.37;23.87;;;11.80;99.90;;;;;;8397639;28;20205;-70
2022/10/27 17:20:10;;;;;;;22.70;19.00;;;11.80;99.90;;;;;;8416859;28;20176;-70
2022/10/27 17:24:11;;;;;;;19.63;16.43;;;11.70;99.90;;;;;;8416560;28;20176;-70
2022/10/27 17:28:12;;;;;;;17.40;14.23;;;11.70;99.90;;;;;;8394876;28;20218;-70
2022/10/27 17:32:13;;;;;;;12.87;10.63;;;11.60;99.90;;;;;;8396064;28;20183;-70
2022/10/27 17:36:15;;;;;;;11.87;10.30;;;11.50;99.90;;;;;;8416705;28;20199;-69
2022/10/27 17:40:15;;;;;;;15.73;10.53;;;11.40;99.90;;;;;;8413598;28;20224;-69
2022/10/27 17:44:16;;;;;;;18.83;11.87;;;11.40;99.90;;;;;;8395236;28;20187;-70
2022/10/27 17:48:17;;;;;;;21.00;13.30;;;11.40;99.90;;;;;;8413330;28;20337;-70
2022/10/27 17:52:18;;;;;;;19.90;12.30;;;11.40;99.90;;;;;;8396495;28;20180;-70
2022/10/27 17:56:24;;;;;;;19.73;13.03;;;11.40;99.90;;;;;;8393241;28;20183;-70
2022/10/27 18:00:25;;;;;;;17.80;12.83;;;11.30;99.90;;;;;;8415448;28;20188;-69
2022/10/27 18:04:26;;;;;;;24.97;15.23;;;11.20;99.90;;;;;;8418087;28;20192;-69
2022/10/27 18:08:28;;;;;;;33.80;19.33;;;11.20;99.90;;;;;;8399171;28;20208;-69
2022/10/27 18:12:29;;;;;;;26.43;15.37;;;11.10;99.90;;;;;;8400181;28;20192;-69
2022/10/27 18:16:33;;;;;;;23.63;16.80;;;11.10;99.90;;;;;;8399061;28;20183;-69
2022/10/27 18:20:34;;;;;;;20.37;16.00;;;11.00;99.90;;;;;;8397546;28;20191;-70
2022/10/27 18:24:35;;;;;;;21.33;14.90;;;11.00;99.90;;;;;;8397068;28;20196;-69
2022/10/27 18:28:36;;;;;;;20.40;14.83;;;10.90;99.90;;;;;;8396371;28;20268;-70
2022/10/27 18:32:37;;;;;;;24.27;21.63;;;10.90;99.90;;;;;;8414916;28;20183;-71
2022/10/27 18:36:39;;;;;;;24.27;18.87;;;10.90;99.90;;;;;;8414792;28;20195;-70
2022/10/27 18:40:40;;;;;;;31.20;24.30;;;10.90;99.90;;;;;;8393980;28;20194;-70
2022/10/27 18:44:40;;;;;;;29.87;22.10;;;11.00;99.90;;;;;;8395250;28;20216;-70
2022/10/27 18:48:42;;;;;;;33.30;28.50;;;11.10;99.90;;;;;;8397537;28;20207;-70
2022/10/27 18:52:43;;;;;;;36.73;29.43;;;11.20;99.90;;;;;;8395885;28;20184;-70
2022/10/27 18:56:43;;;;;;;40.63;30.20;;;11.30;99.90;;;;;;8413291;28;20203;-72
2022/10/27 19:00:44;;;;;;;32.43;23.53;;;11.40;99.90;;;;;;8412216;28;20533;-68
2022/10/27 19:04:45;;;;;;;36.70;29.20;;;11.40;99.90;;;;;;8422177;28;20199;-69
2022/10/27 19:08:46;;;;;;;36.20;28.63;;;11.40;99.90;;;;;;8399798;28;20332;-69
2022/10/27 19:12:47;;;;;;;29.97;23.73;;;11.40;99.90;;;;;;8401858;28;20219;-69
2022/10/27 19:16:48;;;;;;;28.20;21.80;;;11.40;99.90;;;;;;8402094;28;20217;-69
2022/10/27 19:20:56;;;;;;;34.77;25.80;;;11.20;99.90;;;;;;8420345;28;20244;-69
2022/10/27 19:24:57;;;;;;;35.53;26.20;;;11.30;99.90;;;;;;8416736;28;20648;-69
2022/10/27 19:28:58;;;;;;;35.00;24.93;;;11.30;99.90;;;;;;8394889;28;20203;-69
2022/10/27 19:32:58;;;;;;;33.10;24.63;;;11.30;99.90;;;;;;8416770;28;20543;-69
2022/10/27 19:36:59;;;;;;;32.27;24.90;;;11.30;99.90;;;;;;8399250;28;20182;-69
2022/10/27 19:41:00;;;;;;;33.40;26.00;;;11.30;99.90;;;;;;8401925;28;20187;-68
2022/10/27 19:45:05;;;;;;;32.50;25.30;;;11.20;99.90;;;;;;8400270;28;20183;-68
2022/10/27 19:49:07;;;;;;;31.97;22.50;;;11.20;99.90;;;;;;8420702;28;20207;-68
2022/10/27 19:53:08;;;;;;;69.73;33.73;;;11.20;99.90;;;;;;8403433;28;20180;-68
2022/10/27 19:57:10;;;;;;;49.87;35.53;;;11.20;99.90;;;;;;8404537;28;20272;-68
2022/10/27 20:01:15;;;;;;;57.57;39.27;;;11.30;99.90;;;;;;8422336;28;20176;-68
2022/10/27 20:05:16;;;;;;;47.30;31.03;;;11.20;99.90;;;;;;8425888;28;20253;-69
2022/10/27 20:09:21;;;;;;;40.67;27.77;;;11.20;99.90;;;;;;8408340;28;20203;-70
2022/10/27 20:13:22;;;;;;;44.87;29.90;;;11.10;99.90;;;;;;8423996;28;20183;-69
2022/10/27 20:17:23;;;;;;;48.60;30.40;;;10.90;99.90;;;;;;8405901;28;20184;-69
2022/10/27 20:21:24;;;;;;;41.83;27.57;;;10.50;99.90;;;;;;8426222;28;20236;-69
2022/10/27 20:25:25;;;;;;;39.40;29.70;;;10.20;99.90;;;;;;8426302;28;20222;-68
2022/10/27 20:29:25;;;;;;;35.97;27.57;;;10.00;99.90;;;;;;8403197;28;20216;-68
2022/10/27 20:33:26;;;;;;;30.10;23.10;;;10.00;99.90;;;;;;8423382;28;20186;-69
2022/10/27 20:37:30;;;;;;;61.57;38.70;;;10.00;99.90;;;;;;8406516;28;20185;-69
2022/10/27 20:41:31;;;;;;;48.13;33.97;;;9.90;99.90;;;;;;8402878;28;20569;-69
2022/10/27 20:45:32;;;;;;;47.20;35.17;;;9.90;99.90;;;;;;8402799;28;20188;-69
2022/10/27 20:49:33;;;;;;;40.10;29.43;;;9.90;99.90;;;;;;8421543;28;20206;-69
2022/10/27 20:53:34;;;;;;;40.47;28.80;;;10.00;99.90;;;;;;8403814;28;20269;-69
2022/10/27 20:57:34;;;;;;;37.33;25.70;;;9.90;99.90;;;;;;8405293;28;20462;-68
2022/10/27 21:01:37;;;;;;;27.33;20.67;;;9.50;99.90;;;;;;8401441;28;20184;-69
2022/10/27 21:05:38;;;;;;;20.20;16.60;;;9.30;99.90;;;;;;8404859;28;20212;-69